San Jose Del Cabo, Mexique

21:21 MDT le 03 juillet 2015 (GMT -0600)
El Zacatal | | Change Station
CLOSE
Current Station
Stations météorologiques personnelles
Location: San Jose del Cabo, BAJA CALIFORNIA SUR
Altitude: 128 ft
Stations météo à proximité

Alt. 128 ft 23.10 °N, 109.71 °W | Updated 10 minutes ago

Mostly Cloudy
Nuageux
90.0 ° F
Paraît 91 ° F
N
7.0
Vent Variable Vent de SSE
Gusts 10.0 mph

Aujourd'hui
Haut(e) -- | Bas -- ° F
--% Risque de précip.
Hier
Haut(e) -- | Bas -- ° F
Precip. -- pouce
6:37 AM 8:08 PM
Lune gibbeuse décroissante, 95% visible
Pression 29.74 pouce
Visibilité 12.0 Miles terrestres
Nuages Nuageux 25000 ft
indice de chaleur 91 ° F
Point de rosée 63 ° F
Humidité 41%
Précipitations 0.00 pouce
Profondeur de la couche neigeuse Non disponible.
UV 0 sur 12
Pollen Non disponible.
Qualité de l'air Non disponible.
Flu Activity Non disponible.
METAR MMSD 040245Z 11012KT 12SM BKN250 31/15 A2978 RMK SLP071 52008 973 8/008 AC

More Conditions Fewer Conditions

Pression 29.74 pouce
Visibilité 12.0 Miles terrestres
Nuages Nuageux 25000 ft
indice de chaleur 91 ° F
Point de rosée 63 ° F
Humidité 41%
Précipitations 0.00 pouce
Profondeur de la couche neigeuse Non disponible.
UV 0 sur 12
Pollen Non disponible.
Qualité de l'air Non disponible.
Flu Activity Non disponible.
METAR MMSD 040245Z 11012KT 12SM BKN250 31/15 A2978 RMK SLP071 52008 973 8/008 AC

More Conditions Fewer Conditions

10-Day Weather Forecast

×

Almanac

Astronomie

Jul. 03, 2015 Lever Coucher
Temps réel
Crépuscule civil
Crépuscule nautique
Crépuscule astronomique
Lune
Durée de lumière visible
Longueur du jour
Tomorrow will be .
, % of the Moon is Illuminated

Extrêmes aujourd'hui

Country Highs Country Lows

Community

WunderPhotos

Upload Photos

1,834,911 Photos téléchargées !

WunderBlogs® & News

Nearby

Qualité de l'air

  Qualité de l'air Indice de la qualité de l'air Polluant
Not available.

Épaisseur de neige

Station Depth Altitude

Activité sismique

Ville Distance Mag. Time & Date
Minimum magnitude displayed is 2.5.

Températures des eaux côtières

Lieu Température

Stations

Stations météo à proximité

Emplacement de la station Température Refroidissement éolien Point de rosée Humidité Vent Precip. Alt. Mise à jour Type